createdAt,value
2019-02-03T00:01:36.054Z,73.51
2019-02-03T00:05:44.468Z,72.46
2019-02-03T00:09:52.486Z,73.82
2019-02-03T00:14:01.000Z,73.13
2019-02-03T00:18:08.967Z,73.14
2019-02-03T00:22:17.211Z,72.11
2019-02-03T00:26:25.283Z,73.74
2019-02-03T00:30:33.711Z,72.94
2019-02-03T00:34:41.591Z,72.47
2019-02-03T00:38:50.251Z,72.41
2019-02-03T00:42:58.272Z,72.69
2019-02-03T00:47:06.785Z,73.02
2019-02-03T00:51:14.722Z,73.59
2019-02-03T00:55:22.597Z,74.01
2019-02-03T00:59:30.534Z,74.08
2019-02-03T01:03:38.468Z,73.66
2019-02-03T01:07:46.804Z,74.05
2019-02-03T01:11:54.886Z,73.71
2019-02-03T01:16:03.146Z,74.18
2019-02-03T01:20:13.428Z,73.99
2019-02-03T01:24:20.974Z,73.28
2019-02-03T01:28:28.754Z,73.96
2019-02-03T01:32:36.691Z,74.05
2019-02-03T01:36:44.774Z,74.75
2019-02-03T01:40:52.499Z,74.17
2019-02-03T01:45:00.563Z,74.33
2019-02-03T01:49:08.753Z,74.61
2019-02-03T01:53:16.777Z,73.72
2019-02-03T01:57:24.547Z,73.99
2019-02-03T02:01:33.002Z,74.52
2019-02-03T02:05:42.182Z,74.55
2019-02-03T02:09:50.256Z,74.67
2019-02-03T02:13:58.300Z,74.64
2019-02-03T02:18:06.339Z,75.97
2019-02-03T02:22:14.770Z,74.82
2019-02-03T02:26:22.688Z,74.95
2019-02-03T02:30:30.500Z,74.88
2019-02-03T02:34:38.683Z,75.33
2019-02-03T02:38:46.838Z,75.45
2019-02-03T02:42:54.666Z,75.38
2019-02-03T02:47:02.617Z,74.80
2019-02-03T02:51:10.800Z,75.85
2019-02-03T02:55:18.925Z,75.96
2019-02-03T02:59:27.219Z,75.38
2019-02-03T03:03:35.179Z,75.26
2019-02-03T03:07:44.449Z,75.54
2019-02-03T03:11:52.875Z,75.61
2019-02-03T03:16:01.004Z,74.86
2019-02-03T03:20:10.126Z,75.84
2019-02-03T03:24:18.912Z,75.71
2019-02-03T03:28:27.942Z,75.31
2019-02-03T03:32:36.765Z,76.13
2019-02-03T03:36:45.035Z,76.54
2019-02-03T03:40:52.829Z,75.71
2019-02-03T03:45:01.055Z,76.68
2019-02-03T03:49:09.008Z,75.76
2019-02-03T03:53:18.282Z,76.19
2019-02-03T03:57:27.242Z,76.33
2019-02-03T04:01:35.757Z,76.62
2019-02-03T04:05:43.979Z,76.46
2019-02-03T04:09:52.183Z,76.16
2019-02-03T04:14:00.257Z,75.57
2019-02-03T04:18:10.070Z,76.12
2019-02-03T04:22:18.497Z,76.14
2019-02-03T04:26:26.173Z,76.22
2019-02-03T04:30:35.943Z,76.11
2019-02-03T04:34:43.731Z,75.83
2019-02-03T04:38:58.176Z,76.25
2019-02-03T04:43:02.768Z,77.88
2019-02-03T04:47:10.768Z,76.95
2019-02-03T04:51:18.616Z,76.17
2019-02-03T04:55:26.552Z,77.07
2019-02-03T04:59:36.024Z,76.45
2019-02-03T05:03:44.056Z,77.08
2019-02-03T05:07:52.292Z,77.11
2019-02-03T05:12:00.728Z,76.15
2019-02-03T05:16:09.215Z,76.63
2019-02-03T05:20:18.768Z,76.75
2019-02-03T05:24:27.109Z,75.90
2019-02-03T05:28:35.228Z,74.27
2019-02-03T05:32:43.201Z,75.27
2019-02-03T05:36:51.532Z,74.88
2019-02-03T05:40:59.330Z,74.00
2019-02-03T05:45:09.088Z,74.89
2019-02-03T05:49:16.906Z,75.58
2019-02-03T05:53:25.406Z,77.25
2019-02-03T05:57:33.933Z,74.01
2019-02-03T06:01:41.682Z,75.25
2019-02-03T06:05:49.819Z,75.43
2019-02-03T06:09:57.577Z,75.41
2019-02-03T06:14:05.604Z,75.68
2019-02-03T06:18:16.462Z,75.24
2019-02-03T06:22:24.693Z,75.69
2019-02-03T06:26:32.626Z,75.66
2019-02-03T06:31:09.038Z,76.38
2019-02-03T06:35:17.064Z,76.65
2019-02-03T06:39:24.867Z,76.31
2019-02-03T06:43:32.887Z,75.79
2019-02-03T06:47:40.688Z,75.21
2019-02-03T06:51:48.426Z,74.70
2019-02-03T06:55:57.677Z,73.54
2019-02-03T07:00:07.674Z,72.28
2019-02-03T07:04:15.397Z,71.21
2019-02-03T07:08:23.382Z,70.35
2019-02-03T07:12:31.995Z,69.67
2019-02-03T07:16:42.725Z,69.96
2019-02-03T07:20:53.047Z,70.65
2019-02-03T07:25:03.044Z,71.08
2019-02-03T07:29:11.095Z,71.05
2019-02-03T07:33:19.131Z,70.98
2019-02-03T07:37:26.876Z,71.20
2019-02-03T07:41:34.723Z,70.89
2019-02-03T07:45:42.370Z,70.00
2019-02-03T07:49:50.395Z,69.22
2019-02-03T07:54:08.109Z,68.06
2019-02-03T07:58:08.599Z,66.96
2019-02-03T08:02:18.855Z,65.94
2019-02-03T08:06:28.007Z,65.04
2019-02-03T08:10:35.999Z,65.61
2019-02-03T08:14:43.823Z,64.66
2019-02-03T08:18:51.614Z,63.74
2019-02-03T08:22:59.652Z,64.81
2019-02-03T08:27:08.290Z,65.55
2019-02-03T08:31:16.783Z,65.94
2019-02-03T08:35:24.707Z,66.12
2019-02-03T08:39:32.440Z,66.24
2019-02-03T08:43:40.369Z,66.49
2019-02-03T08:47:48.486Z,66.39
2019-02-03T08:51:56.518Z,66.33
2019-02-03T08:56:04.156Z,65.32
2019-02-03T09:00:15.508Z,65.85
2019-02-03T09:04:23.230Z,65.24
2019-02-03T09:08:31.309Z,63.40
2019-02-03T09:12:39.037Z,62.02
2019-02-03T09:16:47.047Z,60.66
2019-02-03T09:20:56.118Z,59.82
2019-02-03T09:25:04.495Z,59.34
2019-02-03T09:29:12.411Z,56.70
2019-02-03T09:33:20.473Z,56.54
2019-02-03T09:37:29.685Z,57.48
2019-02-03T09:41:38.939Z,57.03
2019-02-03T09:45:46.711Z,55.61
2019-02-03T09:49:54.748Z,55.03
2019-02-03T09:54:02.931Z,55.03
2019-02-03T09:58:12.266Z,55.22
2019-02-03T10:02:20.132Z,53.71
2019-02-03T10:06:28.185Z,52.89
2019-02-03T10:10:38.177Z,52.11
2019-02-03T10:14:45.921Z,52.22
2019-02-03T10:18:53.981Z,51.85
2019-02-03T10:23:01.989Z,50.21
2019-02-03T10:27:10.384Z,50.90
2019-02-03T10:31:18.120Z,51.28
2019-02-03T10:35:27.487Z,49.17
2019-02-03T10:39:35.408Z,49.21
2019-02-03T10:43:43.140Z,50.30
2019-02-03T10:47:51.375Z,50.64
2019-02-03T10:51:59.109Z,51.62
2019-02-03T10:56:06.903Z,52.03
2019-02-03T11:04:26.702Z,51.35
2019-02-03T11:08:34.303Z,50.74
2019-02-03T11:12:42.386Z,49.15
2019-02-03T11:16:50.167Z,49.29
2019-02-03T11:20:57.994Z,49.26
2019-02-03T11:25:06.673Z,49.80
2019-02-03T11:29:14.434Z,49.84
2019-02-03T11:33:22.599Z,49.63
2019-02-03T11:37:30.424Z,49.54
2019-02-03T11:41:48.610Z,49.76
2019-02-03T11:45:47.660Z,50.43
2019-02-03T11:49:55.991Z,50.04
2019-02-03T11:54:03.759Z,49.80
2019-02-03T11:58:13.112Z,50.01
2019-02-03T12:02:21.917Z,49.70
2019-02-03T12:06:31.402Z,49.91
2019-02-03T12:10:39.329Z,49.43
2019-02-03T12:14:50.459Z,48.74
2019-02-03T12:18:58.294Z,48.50
2019-02-03T12:23:06.310Z,47.51
2019-02-03T12:27:14.347Z,47.59
2019-02-03T12:31:28.821Z,46.89
2019-02-03T12:35:38.864Z,47.25
2019-02-03T12:39:48.083Z,47.08
2019-02-03T12:43:56.816Z,47.61
2019-02-03T12:48:06.603Z,47.40
2019-02-03T12:52:14.310Z,47.88
2019-02-03T12:56:30.601Z,48.06
2019-02-03T13:00:39.179Z,48.76
2019-02-03T13:04:49.213Z,47.95
2019-02-03T13:09:05.848Z,48.73
2019-02-03T13:13:16.439Z,48.69
2019-02-03T13:17:25.877Z,48.26
2019-02-03T13:21:36.537Z,48.47
2019-02-03T13:25:47.264Z,48.81
2019-02-03T13:29:58.636Z,48.59
2019-02-03T13:34:09.834Z,48.10
2019-02-03T13:38:19.759Z,49.92
2019-02-03T13:42:36.963Z,49.89
2019-02-03T13:46:43.776Z,50.08
2019-02-03T13:50:54.545Z,49.90
2019-02-03T13:55:01.914Z,50.12
2019-02-03T13:59:09.527Z,50.76
2019-02-03T14:03:20.625Z,50.82
2019-02-03T14:07:37.128Z,50.93
2019-02-03T14:11:48.811Z,51.19
2019-02-03T14:15:59.231Z,52.39
2019-02-03T14:20:19.009Z,52.86
2019-02-03T14:24:32.965Z,53.06
2019-02-03T14:28:41.020Z,53.50
2019-02-03T14:32:48.947Z,54.07
2019-02-03T14:36:57.902Z,54.57
2019-02-03T14:41:16.886Z,54.75
2019-02-03T14:45:27.510Z,55.25
2019-02-03T14:49:38.874Z,55.64
2019-02-03T14:53:50.858Z,56.21
2019-02-03T14:58:10.188Z,56.57
2019-02-03T15:02:25.103Z,57.16
2019-02-03T15:06:43.526Z,57.33
2019-02-03T15:10:57.030Z,57.62
2019-02-03T15:15:06.176Z,58.14
2019-02-03T15:19:19.221Z,58.05
2019-02-03T15:23:32.308Z,58.48
2019-02-03T15:27:40.039Z,58.93
2019-02-03T15:31:53.825Z,57.82
2019-02-03T15:36:01.541Z,58.21
2019-02-03T15:40:13.488Z,59.33
2019-02-03T15:44:21.384Z,60.35
2019-02-03T15:48:29.107Z,60.71
2019-02-03T15:52:40.884Z,61.30
2019-02-03T15:56:51.379Z,61.66
2019-02-03T16:01:04.007Z,61.89
2019-02-03T16:05:31.912Z,61.83
2019-02-03T16:09:42.165Z,62.04
2019-02-03T16:13:55.200Z,61.11
2019-02-03T16:18:04.937Z,61.06
2019-02-03T16:22:12.702Z,61.94
2019-02-03T16:26:24.041Z,62.65
2019-02-03T16:30:37.459Z,63.73
2019-02-03T16:34:50.682Z,63.40
2019-02-03T16:39:05.618Z,64.60
2019-02-03T16:43:13.615Z,64.37
2019-02-03T16:47:23.170Z,64.05
2019-02-03T16:51:31.304Z,63.34
2019-02-03T16:55:44.145Z,64.18
2019-02-03T17:00:07.310Z,64.37
2019-02-03T17:04:15.169Z,64.55
2019-02-03T17:08:23.128Z,65.08
2019-02-03T17:12:53.598Z,65.18
2019-02-03T17:17:03.303Z,65.50
2019-02-03T17:21:10.856Z,64.87
2019-02-03T17:25:23.853Z,65.40
2019-02-03T17:29:33.645Z,65.21
2019-02-03T17:33:45.974Z,64.86
2019-02-03T17:37:54.124Z,65.96
2019-02-03T17:42:10.948Z,66.03
2019-02-03T17:46:19.828Z,65.92
2019-02-03T17:50:29.105Z,66.77
2019-02-03T17:54:37.057Z,66.23
2019-02-03T17:58:50.004Z,66.84
2019-02-03T18:03:04.624Z,67.27
2019-02-03T18:07:14.537Z,67.27
2019-02-03T18:11:30.902Z,67.53
2019-02-03T18:15:46.232Z,68.07
2019-02-03T18:19:56.109Z,68.40
2019-02-03T18:24:07.760Z,68.66
2019-02-03T18:28:16.828Z,68.20
2019-02-03T18:32:24.363Z,67.93
2019-02-03T18:36:41.581Z,68.13
2019-02-03T18:40:49.698Z,68.09
2019-02-03T18:45:02.111Z,68.76
2019-02-03T18:49:24.105Z,68.82
2019-02-03T18:53:33.894Z,69.09
2019-02-03T18:57:43.166Z,69.42
2019-02-03T19:01:54.018Z,69.51
2019-02-03T19:06:04.050Z,69.52
2019-02-03T19:10:18.079Z,69.22
2019-02-03T19:14:27.935Z,69.24
2019-02-03T19:18:38.498Z,69.42
2019-02-03T19:22:49.456Z,69.84
2019-02-03T19:27:03.619Z,69.66
2019-02-03T19:31:14.719Z,69.18
2019-02-03T19:35:28.819Z,69.82
2019-02-03T19:39:37.990Z,69.35
2019-02-03T19:43:47.067Z,69.62
2019-02-03T19:47:59.115Z,69.75
2019-02-03T19:52:07.545Z,70.16
2019-02-03T19:56:19.702Z,69.83
2019-02-03T20:00:35.371Z,69.62
2019-02-03T20:04:46.737Z,69.58
2019-02-03T20:08:56.985Z,70.03
2019-02-03T20:13:10.603Z,70.62
2019-02-03T20:17:38.657Z,70.47
2019-02-03T20:22:01.790Z,70.60
2019-02-03T20:26:12.561Z,70.99
2019-02-03T20:30:35.860Z,70.35
2019-02-03T20:34:35.350Z,70.76
2019-02-03T20:38:43.319Z,70.87
2019-02-03T20:42:56.797Z,71.23
2019-02-03T20:47:07.506Z,71.21
2019-02-03T20:51:16.521Z,71.47
2019-02-03T20:55:24.365Z,71.40
2019-02-03T20:59:35.701Z,71.25
2019-02-03T21:03:45.866Z,72.02
2019-02-03T21:07:56.048Z,72.46
2019-02-03T21:12:07.488Z,72.25
2019-02-03T21:16:15.416Z,71.87
2019-02-03T21:20:25.003Z,72.46
2019-02-03T21:24:32.524Z,72.42
2019-02-03T21:28:43.535Z,71.86
2019-02-03T21:32:51.673Z,72.23
2019-02-03T21:37:03.957Z,72.46
2019-02-03T21:41:18.471Z,72.47
2019-02-03T21:45:28.965Z,71.99
2019-02-03T21:49:37.903Z,72.40
2019-02-03T21:53:45.415Z,72.50
2019-02-03T21:57:53.365Z,72.88
2019-02-03T22:02:04.981Z,72.17
2019-02-03T22:06:14.297Z,73.00
2019-02-03T22:10:28.249Z,72.92
2019-02-03T22:14:35.941Z,72.17
2019-02-03T22:18:43.859Z,72.14
2019-02-03T22:22:55.000Z,72.63
2019-02-03T22:27:04.002Z,72.75
2019-02-03T22:31:13.155Z,72.92
2019-02-03T22:35:21.833Z,72.60
2019-02-03T22:39:36.664Z,73.02
2019-02-03T22:43:44.389Z,73.57
2019-02-03T22:47:52.295Z,72.60
2019-02-03T22:52:00.199Z,73.05
2019-02-03T22:56:10.227Z,73.29
2019-02-03T23:01:02.334Z,72.93
2019-02-03T23:05:11.590Z,73.31
2019-02-03T23:09:34.458Z,73.88
2019-02-03T23:13:42.085Z,73.62
2019-02-03T23:17:49.816Z,73.39
2019-02-03T23:21:57.762Z,73.53
2019-02-03T23:26:06.001Z,73.29
2019-02-03T23:30:15.095Z,73.42
2019-02-03T23:34:23.057Z,73.67
2019-02-03T23:38:31.062Z,73.46
2019-02-03T23:42:39.443Z,73.62
2019-02-03T23:46:47.435Z,73.89
2019-02-03T23:50:55.470Z,73.67
2019-02-03T23:55:05.113Z,73.75
2019-02-03T23:59:12.787Z,74.26
